Time;durP1;ratioP1;P1;durP2;ratioP2;P2;SDS_P1;SDS_P2;PMS_P1;PMS_P2;Temp;Humidity;BMP_temperature;BMP_pressure;BME280_temperature;BME280_humidity;BME280_pressure;Samples;Min_cycle;Max_cycle;Signal;HPM_P1;HPM_P2
2022/01/01 00:02:20;;;;;;;34.30;7.82;;;11.70;99.90;;;;;;4962013;28;20031;-96
2022/01/01 00:04:47;;;;;;;33.90;7.75;;;11.70;99.90;;;;;;4959922;28;20080;-95
2022/01/01 00:07:14;;;;;;;33.42;7.65;;;11.70;99.90;;;;;;4962645;28;20035;-94
2022/01/01 00:09:41;;;;;;;33.35;7.43;;;11.70;99.90;;;;;;4963183;28;20027;-93
2022/01/01 00:12:07;;;;;;;34.05;8.10;;;11.70;99.90;;;;;;4961558;28;20140;-94
2022/01/01 00:14:34;;;;;;;31.27;6.97;;;11.70;99.90;;;;;;4959742;28;20038;-95
2022/01/01 00:17:00;;;;;;;33.05;8.02;;;11.70;99.90;;;;;;4961596;28;20623;-94
2022/01/01 00:19:25;;;;;;;36.67;7.78;;;11.70;99.90;;;;;;4963408;28;20027;-95
2022/01/01 00:21:51;;;;;;;35.53;7.57;;;11.70;99.90;;;;;;4960401;28;20464;-94
2022/01/01 00:24:17;;;;;;;32.58;9.10;;;11.70;99.90;;;;;;4960273;28;20031;-94
2022/01/01 00:26:43;;;;;;;35.60;8.02;;;11.80;99.90;;;;;;4960260;28;20556;-92
2022/01/01 00:29:08;;;;;;;27.10;7.18;;;11.80;99.90;;;;;;4961281;28;20046;-94
2022/01/01 00:31:34;;;;;;;38.08;8.38;;;11.80;99.90;;;;;;4960253;28;20109;-95
2022/01/01 00:34:00;;;;;;;31.70;8.07;;;11.80;99.90;;;;;;4959401;28;20477;-95
2022/01/01 00:36:27;;;;;;;37.28;9.65;;;11.80;99.90;;;;;;4963137;28;20026;-95
2022/01/01 00:38:53;;;;;;;38.53;9.15;;;11.90;99.90;;;;;;4965821;28;20039;-93
2022/01/01 00:41:18;;;;;;;28.35;7.07;;;11.90;99.90;;;;;;4966471;28;20034;-93
2022/01/01 00:43:44;;;;;;;26.63;7.88;;;11.90;99.90;;;;;;4963958;28;20101;-95
2022/01/01 00:46:11;;;;;;;28.42;7.47;;;11.90;99.90;;;;;;4962264;28;20137;-94
2022/01/01 00:48:37;;;;;;;34.22;7.50;;;11.90;99.90;;;;;;4959781;28;20053;-93
2022/01/01 00:51:03;;;;;;;38.30;7.88;;;11.90;99.90;;;;;;4958584;28;20117;-94
2022/01/01 00:53:29;;;;;;;27.08;7.45;;;11.90;99.90;;;;;;4960084;28;20038;-95
2022/01/01 00:55:55;;;;;;;31.65;7.53;;;11.90;99.90;;;;;;4959596;28;20030;-94
2022/01/01 00:58:21;;;;;;;29.90;8.00;;;11.90;99.90;;;;;;4961594;28;20023;-94
2022/01/01 01:00:47;;;;;;;32.90;8.32;;;12.00;99.90;;;;;;4958174;28;20034;-95
2022/01/01 01:03:15;;;;;;;20.10;6.05;;;12.00;99.90;;;;;;4960509;28;20030;-93
2022/01/01 01:05:43;;;;;;;28.90;7.85;;;12.00;99.90;;;;;;4960974;28;20439;-94
2022/01/01 01:08:10;;;;;;;25.40;7.38;;;12.00;99.90;;;;;;4964640;28;20026;-94
2022/01/01 01:10:37;;;;;;;28.75;7.50;;;12.00;99.90;;;;;;4961702;28;20027;-95
2022/01/01 01:13:04;;;;;;;26.45;7.25;;;12.10;99.90;;;;;;4960366;28;20381;-94
2022/01/01 01:15:32;;;;;;;32.05;9.85;;;12.10;99.90;;;;;;4961810;28;20049;-94
2022/01/01 01:17:58;;;;;;;21.60;7.65;;;12.10;99.90;;;;;;4962079;28;20520;-95
2022/01/01 01:20:28;;;;;;;23.58;7.25;;;12.20;99.90;;;;;;4963555;28;20022;-96
2022/01/01 01:22:54;;;;;;;25.77;7.47;;;12.20;99.90;;;;;;4966915;28;20031;-94
2022/01/01 01:25:22;;;;;;;29.00;6.93;;;12.20;99.90;;;;;;4966346;28;20090;-95
2022/01/01 01:27:50;;;;;;;30.70;8.63;;;12.20;99.90;;;;;;4967323;28;20102;-93
2022/01/01 01:30:16;;;;;;;22.45;8.10;;;12.20;99.90;;;;;;4939090;29;20023;-92
2022/01/01 01:32:45;;;;;;;17.10;6.38;;;12.20;99.90;;;;;;4939564;29;20130;-95
2022/01/01 01:35:13;;;;;;;26.23;6.82;;;12.30;99.90;;;;;;4940783;29;20023;-93
2022/01/01 01:37:39;;;;;;;18.52;6.45;;;12.30;99.90;;;;;;4958322;28;20031;-93
2022/01/01 01:40:09;;;;;;;23.58;7.90;;;12.30;99.90;;;;;;4941564;29;20114;-94
2022/01/01 01:42:35;;;;;;;22.50;7.18;;;12.30;99.90;;;;;;4942439;29;20034;-93
2022/01/01 01:45:03;;;;;;;22.00;7.70;;;12.30;99.90;;;;;;4940115;29;20024;-95
2022/01/01 01:47:34;;;;;;;19.35;7.15;;;12.30;99.90;;;;;;4941159;29;20015;-94
2022/01/01 01:50:05;;;;;;;22.42;7.15;;;12.30;99.90;;;;;;4942782;29;20055;-94
2022/01/01 01:52:34;;;;;;;19.48;7.25;;;12.30;99.90;;;;;;4942734;29;20031;-91
2022/01/01 01:55:01;;;;;;;16.05;7.18;;;12.30;99.90;;;;;;4941584;29;20494;-95
2022/01/01 01:57:29;;;;;;;27.55;7.55;;;12.30;99.90;;;;;;4940450;29;20031;-96
2022/01/01 01:59:55;;;;;;;23.17;7.97;;;12.30;99.90;;;;;;4942747;29;20027;-95
2022/01/01 02:02:20;;;;;;;18.13;7.50;;;12.30;99.90;;;;;;4941162;29;20023;-96
2022/01/01 02:04:46;;;;;;;31.48;7.75;;;12.30;99.90;;;;;;4941334;29;20062;-96
2022/01/01 02:07:12;;;;;;;17.27;6.13;;;12.30;99.90;;;;;;4942457;29;20031;-93
2022/01/01 02:09:39;;;;;;;24.85;7.60;;;12.30;99.90;;;;;;4943806;29;20027;-94
2022/01/01 02:12:07;;;;;;;20.50;7.20;;;12.30;99.90;;;;;;4942633;29;20031;-93
2022/01/01 02:17:25;;;;;;;26.00;8.30;;;12.30;99.90;;;;;;4962023;29;20026;-93
2022/01/01 02:20:00;;;;;;;22.73;7.55;;;12.20;99.90;;;;;;4943192;29;20023;-94
2022/01/01 02:22:48;;;;;;;24.90;8.10;;;12.30;99.90;;;;;;4943439;29;20027;-95
2022/01/01 02:25:16;;;;;;;17.20;6.35;;;12.20;99.90;;;;;;4944097;29;20031;-94
2022/01/01 02:27:42;;;;;;;22.55;7.68;;;12.20;99.90;;;;;;4966135;28;20023;-93
2022/01/01 02:30:11;;;;;;;24.25;7.55;;;12.20;99.90;;;;;;4943590;29;20035;-95
2022/01/01 02:32:36;;;;;;;24.17;8.85;;;12.30;99.90;;;;;;4943493;29;20031;-93
2022/01/01 02:35:07;;;;;;;24.73;7.60;;;12.30;99.90;;;;;;4949746;29;20043;-94
2022/01/01 02:37:35;;;;;;;19.98;7.70;;;12.30;99.90;;;;;;4950332;29;20051;-94
2022/01/01 02:40:00;;;;;;;21.63;8.02;;;12.30;99.90;;;;;;4949426;29;20031;-94
2022/01/01 02:42:26;;;;;;;15.20;7.20;;;12.30;99.90;;;;;;4949697;29;20053;-95
2022/01/01 02:44:53;;;;;;;22.23;8.52;;;12.30;99.90;;;;;;4948217;29;20034;-95
2022/01/01 02:47:20;;;;;;;14.60;7.32;;;12.30;99.90;;;;;;4943994;29;20035;-94
2022/01/01 02:49:46;;;;;;;17.83;6.68;;;12.30;99.90;;;;;;4944344;29;20043;-93
2022/01/01 02:52:12;;;;;;;23.63;8.57;;;12.30;99.90;;;;;;4944053;29;20730;-94
2022/01/01 02:54:38;;;;;;;30.00;9.30;;;12.30;99.90;;;;;;4945347;29;20046;-95
2022/01/01 02:57:04;;;;;;;22.02;9.30;;;12.30;99.90;;;;;;4944419;29;20038;-94
2022/01/01 02:59:30;;;;;;;23.00;8.88;;;12.30;99.90;;;;;;4944666;29;20123;-95
2022/01/01 03:01:57;;;;;;;15.77;7.63;;;12.30;99.90;;;;;;4945259;29;20095;-94
2022/01/01 03:04:22;;;;;;;19.35;8.43;;;12.30;99.90;;;;;;4927776;29;20054;-94
2022/01/01 03:06:53;;;;;;;24.02;9.48;;;12.30;99.90;;;;;;4947184;29;20027;-94
2022/01/01 03:09:19;;;;;;;;;;;12.30;99.90;;;;;;4945515;29;20114;-94
2022/01/01 03:11:45;;;;;;;21.27;8.77;;;12.20;99.90;;;;;;4946385;29;19910;-94
2022/01/01 03:14:17;;;;;;;21.23;8.68;;;12.20;99.90;;;;;;4944457;29;20103;-95
2022/01/01 03:16:45;;;;;;;24.48;8.80;;;12.30;99.90;;;;;;4943898;29;20055;-96
2022/01/01 03:19:11;;;;;;;21.20;9.50;;;12.30;99.90;;;;;;4945802;29;20047;-94
2022/01/01 03:21:37;;;;;;;24.38;8.93;;;12.20;99.90;;;;;;4942922;29;20051;-95
2022/01/01 03:24:03;;;;;;;21.58;9.75;;;12.20;99.90;;;;;;4944370;29;20028;-94
2022/01/01 03:26:28;;;;;;;23.85;9.98;;;12.20;99.90;;;;;;4945867;29;20062;-94
2022/01/01 03:28:58;;;;;;;28.48;9.77;;;12.20;99.90;;;;;;4952710;28;20253;-96
2022/01/01 03:31:25;;;;;;;21.23;9.02;;;12.20;99.90;;;;;;4948655;28;20035;-94
2022/01/01 03:33:52;;;;;;;17.17;9.02;;;12.20;99.90;;;;;;4962611;28;20126;-94
2022/01/01 03:36:18;;;;;;;29.30;9.13;;;12.20;99.90;;;;;;4969946;28;20027;-96
2022/01/01 03:38:46;;;;;;;18.08;8.52;;;12.20;99.90;;;;;;4963632;28;20027;-96
2022/01/01 03:41:12;;;;;;;23.40;8.60;;;12.20;99.90;;;;;;4953064;28;20031;-94
2022/01/01 03:43:38;;;;;;;20.08;9.23;;;12.20;99.90;;;;;;4962478;28;20038;-93
2022/01/01 03:46:04;;;;;;;23.15;8.18;;;12.20;99.90;;;;;;4961332;28;20027;-95
2022/01/01 03:48:29;;;;;;;19.25;7.70;;;12.20;99.90;;;;;;4961475;28;20042;-94
2022/01/01 03:50:55;;;;;;;19.63;7.70;;;12.20;99.90;;;;;;4960716;28;20049;-96
2022/01/01 03:53:22;;;;;;;21.77;8.10;;;12.20;99.90;;;;;;4961417;28;20042;-94
2022/01/01 03:55:47;;;;;;;19.00;8.20;;;12.20;99.90;;;;;;4961537;28;20567;-93
2022/01/01 03:58:13;;;;;;;21.88;8.40;;;12.20;99.90;;;;;;4962355;28;20052;-95
2022/01/01 04:00:40;;;;;;;23.20;8.02;;;12.20;99.90;;;;;;4963576;28;20019;-96
2022/01/01 04:03:11;;;;;;;17.98;8.13;;;12.20;99.90;;;;;;4963154;28;20034;-94
2022/01/01 04:05:42;;;;;;;21.55;7.68;;;12.20;99.90;;;;;;4962853;28;20054;-94
2022/01/01 04:08:09;;;;;;;22.80;8.15;;;12.20;99.90;;;;;;4959854;28;20031;-94
2022/01/01 04:10:36;;;;;;;21.60;8.30;;;12.20;99.90;;;;;;4962728;28;20042;-94
2022/01/01 04:13:03;;;;;;;19.00;7.85;;;12.20;99.90;;;;;;4968769;28;20054;-95
2022/01/01 04:15:30;;;;;;;19.60;6.82;;;12.20;99.90;;;;;;4962979;28;20026;-93
2022/01/01 04:17:59;;;;;;;13.15;5.78;;;12.10;99.90;;;;;;4959541;28;20030;-94
2022/01/01 04:20:26;;;;;;;18.05;6.50;;;12.20;99.90;;;;;;4960144;28;20027;-95
2022/01/01 04:22:52;;;;;;;20.00;7.53;;;12.10;99.90;;;;;;4960617;28;20101;-95
2022/01/01 04:25:19;;;;;;;22.70;6.97;;;12.10;99.90;;;;;;4962137;28;20027;-94
2022/01/01 04:27:45;;;;;;;20.92;6.78;;;12.10;99.90;;;;;;4961081;28;20034;-95
2022/01/01 04:30:11;;;;;;;22.08;6.68;;;12.10;99.90;;;;;;4962987;28;20476;-95
2022/01/01 04:32:37;;;;;;;21.52;6.75;;;12.10;99.90;;;;;;4963985;28;20023;-95
2022/01/01 04:35:03;;;;;;;17.60;6.50;;;12.10;99.90;;;;;;4961723;28;20034;-95
2022/01/01 04:37:28;;;;;;;16.40;5.50;;;12.10;99.90;;;;;;4964450;28;20061;-94
2022/01/01 04:39:59;;;;;;;22.25;7.72;;;12.10;99.90;;;;;;4963111;28;20562;-94
2022/01/01 04:42:25;;;;;;;18.10;5.22;;;12.10;99.90;;;;;;4961077;28;20070;-94
2022/01/01 04:44:51;;;;;;;21.98;6.38;;;12.10;99.90;;;;;;4959175;28;20026;-94
2022/01/01 04:47:17;;;;;;;13.23;4.80;;;12.10;99.90;;;;;;4962368;28;20027;-94
2022/01/01 04:49:43;;;;;;;14.32;6.18;;;12.10;99.90;;;;;;4960768;28;20114;-94
2022/01/01 04:52:09;;;;;;;22.88;6.50;;;12.10;99.90;;;;;;4960738;28;20464;-95
2022/01/01 04:54:39;;;;;;;13.57;4.97;;;12.10;99.90;;;;;;4959461;28;20110;-93
2022/01/01 04:57:05;;;;;;;21.30;5.40;;;12.00;99.90;;;;;;4958872;28;20018;-93
2022/01/01 04:59:30;;;;;;;23.73;7.32;;;12.10;99.90;;;;;;4960048;28;20035;-92
2022/01/01 05:01:56;;;;;;;17.45;4.82;;;12.10;99.90;;;;;;4959703;28;20027;-93
2022/01/01 05:04:22;;;;;;;22.98;5.18;;;12.10;99.90;;;;;;4959664;28;20035;-95
2022/01/01 05:06:49;;;;;;;16.42;5.78;;;12.10;99.90;;;;;;4960025;28;20054;-94
2022/01/01 05:09:19;;;;;;;18.88;4.93;;;12.10;99.90;;;;;;4959391;28;20081;-95
2022/01/01 05:11:46;;;;;;;19.08;6.00;;;12.10;99.90;;;;;;4958784;28;20038;-94
2022/01/01 05:14:12;;;;;;;19.17;5.53;;;12.10;99.90;;;;;;4958809;28;20385;-93
2022/01/01 05:16:38;;;;;;;33.35;6.68;;;12.10;99.90;;;;;;4960316;28;20038;-95
2022/01/01 05:19:05;;;;;;;18.70;5.32;;;12.10;99.90;;;;;;4960502;28;20031;-93
2022/01/01 05:21:33;;;;;;;19.55;5.90;;;12.00;99.90;;;;;;4961293;28;20019;-95
2022/01/01 05:24:00;;;;;;;12.15;4.63;;;12.00;99.90;;;;;;4960380;28;20022;-94
2022/01/01 05:26:26;;;;;;;21.17;5.88;;;12.10;99.90;;;;;;4960383;28;20059;-93
2022/01/01 05:28:52;;;;;;;20.70;5.35;;;12.10;99.90;;;;;;4955793;28;20031;-95
2022/01/01 05:31:19;;;;;;;15.85;5.53;;;12.00;99.90;;;;;;4940355;29;20095;-92
2022/01/01 05:33:46;;;;;;;19.65;6.00;;;12.00;99.90;;;;;;4940277;29;20039;-93
2022/01/01 05:36:12;;;;;;;17.90;5.10;;;12.00;99.90;;;;;;4940085;29;20076;-94
2022/01/01 05:38:38;;;;;;;13.85;5.72;;;12.00;99.90;;;;;;4939447;29;20082;-94
2022/01/01 05:41:04;;;;;;;20.65;6.22;;;12.00;99.90;;;;;;4940802;29;20381;-94
2022/01/01 05:43:30;;;;;;;15.65;5.80;;;12.00;99.90;;;;;;4943988;29;20079;-95
2022/01/01 05:45:55;;;;;;;22.75;6.60;;;12.00;99.90;;;;;;4944524;29;20087;-94
2022/01/01 05:48:21;;;;;;;17.60;5.05;;;12.00;99.90;;;;;;4927274;29;20043;-94
2022/01/01 05:50:47;;;;;;;16.20;5.57;;;12.00;99.90;;;;;;4944385;29;20506;-93
2022/01/01 05:53:13;;;;;;;20.75;6.40;;;12.00;99.90;;;;;;4943902;29;20067;-95
2022/01/01 05:55:39;;;;;;;14.75;5.82;;;12.00;99.90;;;;;;4942690;29;20032;-94
2022/01/01 05:58:05;;;;;;;14.93;5.65;;;12.00;99.90;;;;;;4948263;29;20027;-95
2022/01/01 06:00:32;;;;;;;20.83;7.22;;;12.00;99.90;;;;;;4950088;29;20031;-95
2022/01/01 06:02:58;;;;;;;17.65;5.53;;;12.00;99.90;;;;;;4942460;29;20440;-95
2022/01/01 06:05:25;;;;;;;21.15;7.07;;;12.00;99.90;;;;;;4943485;29;20496;-95
2022/01/01 06:07:50;;;;;;;13.80;5.63;;;12.00;99.90;;;;;;4944319;29;20043;-95
2022/01/01 06:10:16;;;;;;;20.60;6.60;;;12.00;99.90;;;;;;4944093;29;20034;-94
2022/01/01 06:12:42;;;;;;;17.20;6.13;;;12.00;99.90;;;;;;4942847;29;20545;-94
2022/01/01 06:15:08;;;;;;;18.45;6.30;;;11.90;99.90;;;;;;4943188;29;20102;-95
2022/01/01 06:17:33;;;;;;;18.20;5.57;;;11.90;99.90;;;;;;4945497;29;20032;-93
2022/01/01 06:19:59;;;;;;;24.15;7.00;;;11.90;99.90;;;;;;4944525;29;20110;-95
2022/01/01 06:22:25;;;;;;;17.63;6.28;;;11.90;99.90;;;;;;4949762;29;20027;-96
2022/01/01 06:24:51;;;;;;;21.90;5.63;;;11.90;99.90;;;;;;4945193;29;20038;-94
2022/01/01 06:27:16;;;;;;;23.52;6.30;;;11.80;99.90;;;;;;4944711;29;20115;-95
2022/01/01 06:29:42;;;;;;;17.75;5.50;;;11.80;99.90;;;;;;4945355;29;20054;-95
2022/01/01 06:32:08;;;;;;;22.65;7.00;;;11.80;99.90;;;;;;4948081;29;20031;-96
2022/01/01 06:34:34;;;;;;;21.85;6.50;;;11.80;99.90;;;;;;4948526;29;20058;-92
2022/01/01 06:37:00;;;;;;;18.50;6.18;;;11.70;99.90;;;;;;4948511;29;20059;-94
2022/01/01 06:39:25;;;;;;;14.52;5.25;;;11.70;99.90;;;;;;4964475;28;20031;-95
2022/01/01 06:41:51;;;;;;;18.92;6.78;;;11.70;99.90;;;;;;4965134;28;20042;-95
2022/01/01 06:44:17;;;;;;;21.42;6.55;;;11.80;99.90;;;;;;4958088;29;20118;-95
2022/01/01 06:46:43;;;;;;;21.38;6.13;;;11.70;99.90;;;;;;4948446;29;20035;-94
2022/01/01 06:49:08;;;;;;;15.10;5.40;;;11.70;99.90;;;;;;4947984;29;20043;-94
2022/01/01 06:51:36;;;;;;;16.40;5.43;;;11.70;99.90;;;;;;4944600;29;20127;-94
2022/01/01 06:54:03;;;;;;;18.23;5.90;;;11.70;99.90;;;;;;4945501;29;20035;-95
2022/01/01 06:56:29;;;;;;;22.70;6.97;;;11.70;99.90;;;;;;4945562;29;20031;-94
2022/01/01 06:58:57;;;;;;;15.90;6.35;;;11.60;99.90;;;;;;4949286;29;20113;-95
2022/01/01 07:01:23;;;;;;;15.63;6.05;;;11.60;99.90;;;;;;4945965;29;20023;-95
2022/01/01 07:03:48;;;;;;;17.05;5.38;;;11.60;99.90;;;;;;4944379;29;20038;-93
2022/01/01 07:06:14;;;;;;;18.88;5.10;;;11.50;99.90;;;;;;4945805;29;20062;-94
2022/01/01 07:08:40;;;;;;;15.70;5.15;;;11.50;99.90;;;;;;4946316;29;20035;-95
2022/01/01 07:11:06;;;;;;;17.88;6.15;;;11.50;99.90;;;;;;4944457;29;20059;-95
2022/01/01 07:13:32;;;;;;;20.73;5.40;;;11.50;99.90;;;;;;4943857;29;20071;-94
2022/01/01 07:15:58;;;;;;;24.92;6.28;;;11.50;99.90;;;;;;4942316;29;20019;-94
2022/01/01 07:18:25;;;;;;;15.93;4.70;;;11.50;99.90;;;;;;4946706;29;20055;-96
2022/01/01 07:20:51;;;;;;;20.25;6.22;;;11.50;99.90;;;;;;4949726;29;20028;-96
2022/01/01 07:23:17;;;;;;;17.52;6.10;;;11.50;99.90;;;;;;4943747;29;20492;-94
2022/01/01 07:25:43;;;;;;;14.38;4.85;;;11.50;99.90;;;;;;4942212;29;20042;-93
2022/01/01 07:28:10;;;;;;;21.20;5.18;;;11.40;99.90;;;;;;4947180;29;20047;-93
2022/01/01 07:30:36;;;;;;;23.23;5.70;;;11.50;99.90;;;;;;4960296;28;20373;-94
2022/01/01 07:33:01;;;;;;;30.17;6.97;;;11.40;99.90;;;;;;4966166;28;20046;-95
2022/01/01 07:35:27;;;;;;;15.27;5.75;;;11.40;99.90;;;;;;4963446;28;20038;-93
2022/01/01 07:37:53;;;;;;;18.90;5.53;;;11.40;99.90;;;;;;4963021;28;20043;-94
2022/01/01 07:40:20;;;;;;;21.02;5.32;;;11.40;99.90;;;;;;4961869;28;20022;-96
2022/01/01 07:42:46;;;;;;;21.80;5.68;;;11.40;99.90;;;;;;4962440;28;20023;-94
2022/01/01 07:45:13;;;;;;;24.30;6.55;;;11.40;99.90;;;;;;4963717;28;20082;-96
2022/01/01 07:47:39;;;;;;;20.60;5.55;;;11.40;99.90;;;;;;4969662;28;20046;-96
2022/01/01 07:50:06;;;;;;;21.75;5.55;;;11.40;99.90;;;;;;4966700;28;20101;-95
2022/01/01 07:52:32;;;;;;;23.92;6.18;;;11.40;99.90;;;;;;4964964;28;20170;-95
2022/01/01 07:54:58;;;;;;;22.38;6.40;;;11.30;99.90;;;;;;4965413;28;20069;-95
2022/01/01 07:57:24;;;;;;;17.13;5.18;;;11.30;99.90;;;;;;4962325;28;20034;-95
2022/01/01 07:59:53;;;;;;;20.17;5.35;;;11.30;99.90;;;;;;4962276;28;20543;-94
2022/01/01 08:02:19;;;;;;;23.85;5.80;;;11.30;99.90;;;;;;4964620;28;20089;-94
2022/01/01 08:04:45;;;;;;;23.60;6.72;;;11.40;99.90;;;;;;4964341;28;20027;-95
2022/01/01 08:07:11;;;;;;;18.45;5.63;;;11.40;99.90;;;;;;4965222;28;20030;-96
2022/01/01 08:09:38;;;;;;;20.98;5.30;;;11.40;99.90;;;;;;4961162;28;20038;-94
2022/01/01 08:12:07;;;;;;;22.25;5.72;;;11.40;99.90;;;;;;4965053;28;20406;-95
2022/01/01 08:14:33;;;;;;;12.98;4.93;;;11.40;99.90;;;;;;4963986;28;20491;-94
2022/01/01 08:17:01;;;;;;;17.98;5.85;;;11.40;99.90;;;;;;4963387;28;20038;-96
2022/01/01 08:19:28;;;;;;;19.13;6.13;;;11.40;99.90;;;;;;4968448;28;20027;-94
2022/01/01 08:21:57;;;;;;;21.30;6.32;;;11.40;99.90;;;;;;4968303;28;20023;-94
2022/01/01 08:24:24;;;;;;;19.38;6.88;;;11.30;99.90;;;;;;4965923;28;20484;-95
2022/01/01 08:26:50;;;;;;;22.02;6.10;;;11.30;99.90;;;;;;4968190;28;20035;-95
2022/01/01 08:29:16;;;;;;;14.38;5.13;;;11.30;99.90;;;;;;4966867;28;20027;-94
2022/01/01 08:31:42;;;;;;;20.55;6.45;;;11.30;99.90;;;;;;4962783;28;20103;-93
2022/01/01 08:34:08;;;;;;;17.45;5.57;;;11.30;99.90;;;;;;4964641;28;20031;-94
2022/01/01 08:36:34;;;;;;;15.57;5.20;;;11.30;99.90;;;;;;4967755;28;20022;-95
2022/01/01 08:39:00;;;;;;;20.20;5.97;;;11.40;99.90;;;;;;4969030;28;20034;-96
2022/01/01 08:41:26;;;;;;;15.30;4.55;;;11.30;99.90;;;;;;4963119;28;20026;-95
2022/01/01 08:43:53;;;;;;;15.75;5.00;;;11.40;99.90;;;;;;4962952;28;20021;-96
2022/01/01 08:46:19;;;;;;;16.38;4.78;;;11.40;99.90;;;;;;4963988;28;20034;-95
2022/01/01 08:48:45;;;;;;;21.50;5.85;;;11.40;99.90;;;;;;4959980;28;20097;-94
2022/01/01 08:51:13;;;;;;;18.08;5.25;;;11.40;99.90;;;;;;4964411;28;20055;-94
2022/01/01 08:53:39;;;;;;;21.85;6.32;;;11.50;99.90;;;;;;4963431;28;20098;-94
2022/01/01 08:56:07;;;;;;;22.02;4.85;;;11.50;99.90;;;;;;4965602;28;20065;-94
2022/01/01 08:58:34;;;;;;;21.35;4.47;;;11.50;99.90;;;;;;4966808;28;20155;-96
2022/01/01 09:01:00;;;;;;;22.33;4.50;;;11.50;99.90;;;;;;4967872;28;20066;-95
2022/01/01 09:03:26;;;;;;;22.25;4.78;;;11.50;99.90;;;;;;4963497;28;20031;-95
2022/01/01 09:05:52;;;;;;;17.83;4.95;;;11.50;99.90;;;;;;4962279;28;20098;-94
2022/01/01 09:08:17;;;;;;;20.05;4.82;;;11.60;99.90;;;;;;4963064;28;20027;-94
2022/01/01 09:10:45;;;;;;;21.83;4.65;;;11.60;99.90;;;;;;4963828;28;20117;-96
2022/01/01 09:13:11;;;;;;;23.98;5.15;;;11.70;99.90;;;;;;4964802;28;20404;-96
2022/01/01 09:15:37;;;;;;;13.63;4.72;;;11.70;99.90;;;;;;4962681;28;20030;-95
2022/01/01 09:18:03;;;;;;;15.75;4.40;;;11.70;99.90;;;;;;4962701;28;20038;-94
2022/01/01 09:20:28;;;;;;;18.48;4.53;;;11.70;99.90;;;;;;4960563;28;20034;-95
2022/01/01 09:22:54;;;;;;;14.80;3.95;;;11.70;99.90;;;;;;4962208;28;20023;-94
2022/01/01 09:25:21;;;;;;;20.13;4.72;;;11.70;99.90;;;;;;4960246;28;20038;-95
2022/01/01 09:27:47;;;;;;;17.30;4.00;;;11.80;99.90;;;;;;4960178;28;20023;-94
2022/01/01 09:30:13;;;;;;;23.45;4.20;;;11.90;99.90;;;;;;4957493;28;20035;-94
2022/01/01 09:32:40;;;;;;;18.77;4.68;;;11.90;99.90;;;;;;4944817;29;20038;-94
2022/01/01 09:35:07;;;;;;;24.83;5.40;;;12.00;99.90;;;;;;4944321;29;20027;-94
2022/01/01 09:37:36;;;;;;;23.33;5.85;;;12.10;99.90;;;;;;4941288;29;20118;-94
2022/01/01 09:40:03;;;;;;;10.02;4.82;;;12.10;99.90;;;;;;4940148;29;20085;-94
2022/01/01 09:42:30;;;;;;;23.35;5.60;;;12.20;99.90;;;;;;4939385;29;20038;-94
2022/01/01 09:44:57;;;;;;;24.52;4.85;;;12.30;99.90;;;;;;4939252;29;20106;-94
2022/01/01 09:47:23;;;;;;;20.90;5.13;;;12.30;99.90;;;;;;4939517;29;20031;-95
2022/01/01 09:49:49;;;;;;;18.65;4.53;;;12.40;99.90;;;;;;4939126;29;20052;-95
2022/01/01 09:52:16;;;;;;;20.10;5.32;;;12.40;99.90;;;;;;4938924;29;20045;-94
2022/01/01 09:54:43;;;;;;;15.43;4.65;;;12.40;99.90;;;;;;4938886;29;20083;-94
2022/01/01 09:57:18;;;;;;;15.15;3.90;;;12.40;99.90;;;;;;4939343;29;20111;-92
2022/01/01 09:59:43;;;;;;;26.60;6.45;;;12.40;99.90;;;;;;4938676;29;20031;-93
2022/01/01 10:02:09;;;;;;;27.48;4.57;;;12.40;99.90;;;;;;4939154;29;20027;-94
2022/01/01 10:04:43;;;;;;;15.70;5.07;;;12.40;99.90;;;;;;4938691;29;20035;-93
2022/01/01 10:07:10;;;;;;;18.17;4.85;;;12.40;99.90;;;;;;4938711;29;20027;-94
2022/01/01 10:09:37;;;;;;;21.48;4.40;;;12.40;99.90;;;;;;4939017;29;20070;-93
2022/01/01 10:12:07;;;;;;;28.88;6.35;;;12.30;99.90;;;;;;4940383;29;20043;-94
2022/01/01 10:14:40;;;;;;;20.75;5.45;;;12.40;99.90;;;;;;4939106;29;20045;-94
2022/01/01 10:17:20;;;;;;;17.88;4.82;;;12.30;99.90;;;;;;4938973;29;20046;-94
2022/01/01 10:19:51;;;;;;;18.40;4.75;;;12.30;99.90;;;;;;4938595;29;20039;-96
2022/01/01 10:22:22;;;;;;;22.67;5.30;;;12.30;99.90;;;;;;4938546;29;20032;-94
2022/01/01 10:27:43;;;;;;;26.88;5.20;;;12.30;99.90;;;;;;4958816;28;19917;-93
2022/01/01 10:30:36;;;;;;;29.33;5.75;;;12.30;99.90;;;;;;4959541;29;20037;-94
2022/01/01 10:33:12;;;;;;;23.70;4.53;;;12.40;99.90;;;;;;4942322;29;20114;-94
2022/01/01 10:35:44;;;;;;;23.83;4.72;;;12.40;99.90;;;;;;4942692;29;20023;-94
2022/01/01 10:38:17;;;;;;;13.75;4.35;;;12.40;99.90;;;;;;4942663;29;20046;-95
2022/01/01 10:40:43;;;;;;;25.48;5.47;;;12.40;99.90;;;;;;4942745;29;20020;-94
2022/01/01 10:43:10;;;;;;;18.90;4.47;;;12.40;99.90;;;;;;4945449;29;20071;-94
2022/01/01 10:45:41;;;;;;;20.83;5.57;;;12.50;99.90;;;;;;4947198;29;20030;-96
2022/01/01 10:50:44;;;;;;;28.75;5.45;;;12.50;99.90;;;;;;4972906;29;20114;-95
2022/01/01 10:53:15;;;;;;;15.25;3.95;;;12.50;99.90;;;;;;4963274;29;20050;-95
2022/01/01 10:55:45;;;;;;;24.80;5.38;;;12.50;99.90;;;;;;4962636;29;20027;-95
2022/01/01 10:58:20;;;;;;;21.70;5.30;;;12.50;99.90;;;;;;4952315;29;20046;-93
2022/01/01 11:00:47;;;;;;;24.15;4.53;;;12.50;99.90;;;;;;4941653;29;20035;-93
2022/01/01 11:03:21;;;;;;;23.60;4.88;;;12.50;99.90;;;;;;4941931;29;20031;-93
2022/01/01 11:05:48;;;;;;;35.00;6.68;;;12.50;99.90;;;;;;4941935;29;20031;-95
2022/01/01 11:08:14;;;;;;;22.60;5.45;;;12.60;99.90;;;;;;4941633;29;20031;-94
2022/01/01 11:10:42;;;;;;;24.40;4.43;;;12.60;99.90;;;;;;4958617;29;20031;-94
2022/01/01 11:13:09;;;;;;;29.85;4.75;;;12.60;99.90;;;;;;4941269;29;20043;-94
2022/01/01 11:15:35;;;;;;;34.40;6.65;;;12.60;99.90;;;;;;4940765;29;20019;-94
2022/01/01 11:18:02;;;;;;;25.65;4.90;;;12.70;99.90;;;;;;4940446;29;20378;-93
2022/01/01 11:20:33;;;;;;;20.88;4.78;;;12.70;99.90;;;;;;4940895;29;20034;-94
2022/01/01 11:23:12;;;;;;;35.65;5.90;;;12.70;99.90;;;;;;4945390;29;20027;-95
2022/01/01 11:25:40;;;;;;;24.58;5.40;;;12.80;99.90;;;;;;4950318;29;20027;-94
2022/01/01 11:28:09;;;;;;;26.75;5.35;;;12.80;99.90;;;;;;4950011;29;20644;-94
2022/01/01 11:30:41;;;;;;;28.33;4.28;;;12.80;99.90;;;;;;4941358;28;20086;-94
2022/01/01 11:33:08;;;;;;;33.72;5.43;;;12.80;99.90;;;;;;4956880;28;20043;-93
2022/01/01 11:35:38;;;;;;;30.10;5.03;;;12.90;99.90;;;;;;4959783;28;20033;-93
2022/01/01 11:38:10;;;;;;;26.30;6.38;;;12.90;99.90;;;;;;4960383;28;20052;-94
2022/01/01 11:40:52;;;;;;;33.20;6.85;;;12.90;99.90;;;;;;4960467;28;20097;-93
2022/01/01 11:43:30;;;;;;;20.05;3.78;;;13.00;99.90;;;;;;4959758;28;20102;-93
2022/01/01 11:46:00;;;;;;;32.90;4.95;;;13.00;99.90;;;;;;4960230;28;20019;-94
2022/01/01 11:48:26;;;;;;;29.58;5.57;;;13.00;99.90;;;;;;4961271;28;20135;-94
2022/01/01 11:50:52;;;;;;;36.65;5.35;;;13.00;99.90;;;;;;4962820;28;20129;-92
2022/01/01 11:53:32;;;;;;;30.08;5.78;;;13.00;99.90;;;;;;4963329;28;20030;-94
2022/01/01 11:56:11;;;;;;;24.05;4.22;;;13.10;99.90;;;;;;4959930;28;20027;-95
2022/01/01 11:58:51;;;;;;;36.55;5.95;;;13.10;99.90;;;;;;4959104;28;20054;-93
2022/01/01 12:01:18;;;;;;;26.00;4.75;;;13.10;99.90;;;;;;4959276;28;20046;-95
2022/01/01 12:03:49;;;;;;;31.48;5.07;;;13.10;99.90;;;;;;4958969;28;20058;-95
2022/01/01 12:06:18;;;;;;;34.28;5.38;;;13.10;99.90;;;;;;4958978;28;20488;-93
2022/01/01 12:08:50;;;;;;;25.98;4.22;;;13.10;99.90;;;;;;4958837;28;20034;-93
2022/01/01 12:11:34;;;;;;;26.00;4.25;;;13.10;99.90;;;;;;4959307;28;20527;-93
2022/01/01 12:14:02;;;;;;;22.88;4.90;;;13.10;99.90;;;;;;4958284;28;20531;-95
2022/01/01 12:16:29;;;;;;;34.35;6.85;;;13.20;99.90;;;;;;4958824;28;20027;-94
2022/01/01 12:19:05;;;;;;;31.30;4.82;;;13.20;99.90;;;;;;4959167;28;20117;-94
2022/01/01 12:21:41;;;;;;;33.28;5.80;;;13.20;99.90;;;;;;4958831;28;20043;-94
2022/01/01 12:24:09;;;;;;;24.15;4.47;;;13.20;99.90;;;;;;4958586;28;20077;-94
2022/01/01 12:26:35;;;;;;;32.45;5.13;;;13.30;99.90;;;;;;4958331;28;20031;-95
2022/01/01 12:29:07;;;;;;;30.13;4.68;;;13.30;99.90;;;;;;4958526;28;20025;-95
2022/01/01 12:31:33;;;;;;;26.55;4.43;;;13.30;99.90;;;;;;4958438;28;20030;-94
2022/01/01 12:34:10;;;;;;;31.92;4.97;;;13.30;99.90;;;;;;4958651;28;20051;-93
2022/01/01 12:36:41;;;;;;;32.13;4.72;;;13.30;99.90;;;;;;4958512;28;20033;-95
2022/01/01 12:39:09;;;;;;;30.08;5.38;;;13.30;99.90;;;;;;4959105;28;20415;-93
2022/01/01 12:41:37;;;;;;;25.58;4.82;;;13.20;99.90;;;;;;4958353;28;20027;-94
2022/01/01 12:44:08;;;;;;;24.75;4.65;;;13.20;99.90;;;;;;4958883;28;20038;-94
2022/01/01 12:46:48;;;;;;;38.10;5.47;;;13.20;99.90;;;;;;4958664;28;20701;-94
2022/01/01 12:49:14;;;;;;;25.97;6.00;;;13.20;99.90;;;;;;4957856;28;20070;-94